createdAt,value
2023-03-17T00:02:26.631Z,3.78
2023-03-17T00:04:53.484Z,4.25
2023-03-17T00:07:20.225Z,3.83
2023-03-17T00:09:47.078Z,4.00
2023-03-17T00:12:13.953Z,3.50
2023-03-17T00:14:41.606Z,4.80
2023-03-17T00:17:09.578Z,4.38
2023-03-17T00:19:36.390Z,5.55
2023-03-17T00:22:06.204Z,5.00
2023-03-17T00:24:33.631Z,3.78
2023-03-17T00:27:00.685Z,3.78
2023-03-17T00:29:28.006Z,4.25
2023-03-17T00:31:56.284Z,4.38
2023-03-17T00:34:23.521Z,4.15
2023-03-17T00:36:51.049Z,3.53
2023-03-17T00:39:18.517Z,3.88
2023-03-17T00:44:12.412Z,4.38
2023-03-17T00:46:39.509Z,4.00
2023-03-17T00:49:25.001Z,4.25
2023-03-17T00:51:51.997Z,4.88
2023-03-17T00:54:19.580Z,3.58
2023-03-17T00:56:46.648Z,3.58
2023-03-17T00:59:37.997Z,3.67
2023-03-17T01:02:04.937Z,3.50
2023-03-17T01:04:32.272Z,3.95
2023-03-17T01:06:59.322Z,3.10
2023-03-17T01:09:26.848Z,4.10
2023-03-17T01:11:55.100Z,4.22
2023-03-17T01:14:22.594Z,3.75
2023-03-17T01:16:50.518Z,3.10
2023-03-17T01:19:17.935Z,4.15
2023-03-17T01:21:45.629Z,3.92
2023-03-17T01:24:13.021Z,4.40
2023-03-17T01:26:40.435Z,3.75
2023-03-17T01:29:07.997Z,4.13
2023-03-17T01:31:35.290Z,3.80
2023-03-17T01:34:02.921Z,3.15
2023-03-17T01:36:29.712Z,4.38
2023-03-17T01:38:57.275Z,4.35
2023-03-17T01:41:25.005Z,3.88
2023-03-17T01:43:51.755Z,3.90
2023-03-17T01:46:25.217Z,4.07
2023-03-17T01:49:04.234Z,6.10
2023-03-17T01:51:50.137Z,3.88
2023-03-17T01:54:24.670Z,4.00
2023-03-17T01:56:52.304Z,3.58
2023-03-17T01:59:21.542Z,4.63
2023-03-17T02:01:49.393Z,4.13
2023-03-17T02:04:16.555Z,4.47
2023-03-17T02:06:56.838Z,3.45
2023-03-17T02:09:24.501Z,3.75
2023-03-17T02:11:51.241Z,3.97
2023-03-17T02:14:17.936Z,4.97
2023-03-17T02:16:48.587Z,4.75
2023-03-17T02:19:15.352Z,3.25
2023-03-17T02:21:46.263Z,3.50
2023-03-17T02:24:18.834Z,3.85
2023-03-17T02:26:46.322Z,3.80
2023-03-17T02:29:13.066Z,3.58
2023-03-17T02:31:40.950Z,5.18
2023-03-17T02:34:07.739Z,4.00
2023-03-17T02:36:34.803Z,6.15
2023-03-17T02:39:01.704Z,3.80
2023-03-17T02:41:29.367Z,4.00
2023-03-17T02:43:56.886Z,4.68
2023-03-17T02:46:23.968Z,4.65
2023-03-17T02:48:50.872Z,4.88
2023-03-17T02:51:17.701Z,4.68
2023-03-17T02:53:44.486Z,4.00
2023-03-17T02:56:11.277Z,4.82
2023-03-17T02:58:38.022Z,3.72
2023-03-17T03:01:04.996Z,4.20
2023-03-17T03:03:31.887Z,5.03
2023-03-17T03:05:59.766Z,4.07
2023-03-17T03:08:27.870Z,4.68
2023-03-17T03:10:55.008Z,4.78
2023-03-17T03:13:22.057Z,3.88
2023-03-17T03:15:48.817Z,4.93
2023-03-17T03:18:15.592Z,5.13
2023-03-17T03:20:44.137Z,3.97
2023-03-17T03:23:11.969Z,4.28
2023-03-17T03:25:38.768Z,4.38
2023-03-17T03:28:06.809Z,4.90
2023-03-17T03:30:33.752Z,3.45
2023-03-17T03:33:00.668Z,3.92
2023-03-17T03:35:28.415Z,5.07
2023-03-17T03:37:56.315Z,5.20
2023-03-17T03:40:24.129Z,4.50
2023-03-17T03:42:50.855Z,5.68
2023-03-17T03:45:17.683Z,3.97
2023-03-17T03:47:44.518Z,4.97
2023-03-17T03:50:11.785Z,4.85
2023-03-17T03:52:38.512Z,4.70
2023-03-17T03:55:05.644Z,5.55
2023-03-17T03:57:32.486Z,5.00
2023-03-17T03:59:59.174Z,5.53
2023-03-17T04:02:27.075Z,4.60
2023-03-17T04:04:54.262Z,5.40
2023-03-17T04:07:21.424Z,5.28
2023-03-17T04:09:49.312Z,5.60
2023-03-17T04:12:17.100Z,5.22
2023-03-17T04:14:44.594Z,6.20
2023-03-17T04:17:11.809Z,6.40
2023-03-17T04:19:39.257Z,6.30
2023-03-17T04:22:06.806Z,6.15
2023-03-17T04:24:34.827Z,5.47
2023-03-17T04:27:03.691Z,5.70
2023-03-17T04:29:32.267Z,6.20
2023-03-17T04:31:59.069Z,6.03
2023-03-17T04:34:27.285Z,5.97
2023-03-17T04:36:54.059Z,6.72
2023-03-17T04:39:20.939Z,5.80
2023-03-17T04:41:47.676Z,5.88
2023-03-17T04:44:14.464Z,5.32
2023-03-17T04:46:41.922Z,6.25
2023-03-17T04:49:09.530Z,5.22
2023-03-17T04:51:36.889Z,4.90
2023-03-17T04:54:03.889Z,4.95
2023-03-17T04:56:31.970Z,5.47
2023-03-17T04:58:58.917Z,4.70
2023-03-17T05:01:26.382Z,4.35
2023-03-17T05:03:53.215Z,4.50
2023-03-17T05:06:19.972Z,3.97
2023-03-17T05:08:46.894Z,4.88
2023-03-17T05:11:13.891Z,4.75
2023-03-17T05:13:43.366Z,3.90
2023-03-17T05:16:10.377Z,4.10
2023-03-17T05:18:37.287Z,4.97
2023-03-17T05:21:04.953Z,4.70
2023-03-17T05:23:31.754Z,4.15
2023-03-17T05:25:59.335Z,4.10
2023-03-17T05:28:26.754Z,4.30
2023-03-17T05:30:53.771Z,4.70
2023-03-17T05:33:21.975Z,4.45
2023-03-17T05:35:49.195Z,4.95
2023-03-17T05:38:16.111Z,4.53
2023-03-17T05:40:43.504Z,3.40
2023-03-17T05:43:10.309Z,4.68
2023-03-17T05:45:37.210Z,4.18
2023-03-17T05:48:04.835Z,4.45
2023-03-17T05:50:32.513Z,4.22
2023-03-17T05:52:59.434Z,4.57
2023-03-17T05:55:26.271Z,5.55
2023-03-17T05:57:53.028Z,6.35
2023-03-17T06:00:21.484Z,6.13
2023-03-17T06:02:48.412Z,6.10
2023-03-17T06:05:15.300Z,5.90
2023-03-17T06:07:52.906Z,7.22
2023-03-17T06:10:22.886Z,8.13
2023-03-17T06:12:49.654Z,9.23
2023-03-17T06:15:17.190Z,6.50
2023-03-17T06:17:47.224Z,7.93
2023-03-17T06:20:14.378Z,7.70
2023-03-17T06:22:55.134Z,7.10
2023-03-17T06:25:27.431Z,7.93
2023-03-17T06:27:56.158Z,6.45
2023-03-17T06:30:23.052Z,8.13
2023-03-17T06:32:50.389Z,7.15
2023-03-17T06:35:18.122Z,7.32
2023-03-17T06:37:48.254Z,8.10
2023-03-17T06:40:16.323Z,7.57
2023-03-17T06:42:43.236Z,8.35
2023-03-17T06:45:10.631Z,8.38
2023-03-17T06:47:37.399Z,7.20
2023-03-17T06:50:04.886Z,8.75
2023-03-17T06:52:31.629Z,7.20
2023-03-17T06:54:58.337Z,6.88
2023-03-17T06:57:25.145Z,7.75
2023-03-17T06:59:52.398Z,8.02
2023-03-17T07:02:19.835Z,7.57
2023-03-17T07:04:46.910Z,7.78
2023-03-17T07:07:13.793Z,8.02
2023-03-17T07:09:40.756Z,7.70
2023-03-17T07:12:07.626Z,7.85
2023-03-17T07:14:35.635Z,7.97
2023-03-17T07:17:06.108Z,8.10
2023-03-17T07:19:33.268Z,7.72
2023-03-17T07:22:00.132Z,7.35
2023-03-17T07:24:27.218Z,6.93
2023-03-17T07:26:54.188Z,7.60
2023-03-17T07:29:22.747Z,8.93
2023-03-17T07:31:49.827Z,9.27
2023-03-17T07:34:16.995Z,8.27
2023-03-17T07:36:43.773Z,8.73
2023-03-17T07:39:12.059Z,7.47
2023-03-17T07:41:38.979Z,7.60
2023-03-17T07:44:05.721Z,7.50
2023-03-17T07:46:32.534Z,7.30
2023-03-17T07:48:59.447Z,8.48
2023-03-17T07:51:28.131Z,7.75
2023-03-17T07:54:03.134Z,7.85
2023-03-17T07:56:31.095Z,7.22
2023-03-17T07:58:59.042Z,8.73
2023-03-17T08:01:26.621Z,8.13
2023-03-17T08:03:53.612Z,7.07
2023-03-17T08:06:21.583Z,7.90
2023-03-17T08:08:48.517Z,5.85
2023-03-17T08:11:15.646Z,6.20
2023-03-17T08:13:42.595Z,6.57
2023-03-17T08:16:09.576Z,6.00
2023-03-17T08:18:37.675Z,5.43
2023-03-17T08:21:05.189Z,6.55
2023-03-17T08:23:32.723Z,6.00
2023-03-17T08:26:03.530Z,5.72
2023-03-17T08:28:30.552Z,5.93
2023-03-17T08:31:12.429Z,5.65
2023-03-17T08:33:42.330Z,5.75
2023-03-17T08:36:10.208Z,5.53
2023-03-17T08:38:38.093Z,5.20
2023-03-17T08:41:06.800Z,5.00
2023-03-17T08:43:34.092Z,5.27
2023-03-17T08:46:09.682Z,4.40
2023-03-17T08:48:37.562Z,4.57
2023-03-17T08:51:05.026Z,4.68
2023-03-17T08:53:32.976Z,4.60
2023-03-17T08:55:59.752Z,4.45
2023-03-17T08:58:26.590Z,4.10
2023-03-17T09:00:53.960Z,4.97
2023-03-17T09:03:21.072Z,4.30
2023-03-17T09:05:48.680Z,4.78
2023-03-17T09:08:15.473Z,4.22
2023-03-17T09:10:44.444Z,4.22
2023-03-17T09:13:11.706Z,3.67
2023-03-17T09:15:38.930Z,3.50
2023-03-17T09:18:06.364Z,3.50
2023-03-17T09:20:33.794Z,3.10
2023-03-17T09:23:01.726Z,3.88
2023-03-17T09:25:28.805Z,2.63
2023-03-17T09:27:55.699Z,2.70
2023-03-17T09:30:22.979Z,2.78
2023-03-17T09:32:50.593Z,3.00
2023-03-17T09:35:17.468Z,3.53
2023-03-17T09:37:44.309Z,3.42
2023-03-17T09:40:13.307Z,3.00
2023-03-17T09:43:03.630Z,3.22
2023-03-17T09:45:31.332Z,2.95
2023-03-17T09:48:01.578Z,3.22
2023-03-17T09:50:50.530Z,3.28
2023-03-17T09:53:28.174Z,2.88
2023-03-17T09:55:58.821Z,2.60
2023-03-17T09:58:29.825Z,2.33
2023-03-17T10:00:56.877Z,2.63
2023-03-17T10:03:24.469Z,3.03
2023-03-17T10:05:52.778Z,2.40
2023-03-17T10:08:31.736Z,1.80
2023-03-17T10:11:04.264Z,2.28
2023-03-17T10:13:49.651Z,2.20
2023-03-17T10:16:35.690Z,2.10
2023-03-17T10:19:27.159Z,1.85
2023-03-17T10:21:58.899Z,2.10
2023-03-17T10:24:26.539Z,1.88
2023-03-17T10:26:53.496Z,2.00
2023-03-17T10:29:22.688Z,1.90
2023-03-17T10:31:50.363Z,2.00
2023-03-17T10:34:17.367Z,2.08
2023-03-17T10:36:49.006Z,1.77
2023-03-17T10:39:19.751Z,2.10
2023-03-17T10:42:09.524Z,2.33
2023-03-17T10:44:42.182Z,1.77
2023-03-17T10:47:24.601Z,1.58
2023-03-17T10:49:52.839Z,2.20
2023-03-17T10:52:29.246Z,1.92
2023-03-17T10:54:56.271Z,1.98
2023-03-17T10:57:23.021Z,1.88
2023-03-17T10:59:53.381Z,1.85
2023-03-17T11:02:21.646Z,1.80
2023-03-17T11:04:48.607Z,1.83
2023-03-17T11:07:27.237Z,1.70
2023-03-17T11:09:58.438Z,1.70
2023-03-17T11:12:27.738Z,1.98
2023-03-17T11:15:02.074Z,2.22
2023-03-17T11:17:53.240Z,2.13
2023-03-17T11:20:32.429Z,2.33
2023-03-17T11:23:02.295Z,2.00
2023-03-17T11:25:29.118Z,2.70
2023-03-17T11:28:05.012Z,2.10
2023-03-17T11:30:34.078Z,2.13
2023-03-17T11:33:33.789Z,2.25
2023-03-17T11:36:03.563Z,2.40
2023-03-17T11:38:31.402Z,2.53
2023-03-17T11:41:04.909Z,2.55
2023-03-17T11:44:13.549Z,2.67
2023-03-17T11:46:53.551Z,2.42
2023-03-17T11:49:22.293Z,2.35
2023-03-17T11:52:04.195Z,2.13
2023-03-17T11:54:36.568Z,2.60
2023-03-17T11:57:12.020Z,2.85
2023-03-17T11:59:53.259Z,2.80
2023-03-17T12:02:33.536Z,2.65
2023-03-17T12:05:10.937Z,3.00
2023-03-17T12:07:48.127Z,3.30
2023-03-17T12:10:23.267Z,3.50
2023-03-17T12:13:14.128Z,3.47
2023-03-17T12:15:56.854Z,3.65
2023-03-17T12:18:30.197Z,2.83
2023-03-17T12:21:15.422Z,3.42
2023-03-17T12:23:56.875Z,3.88
2023-03-17T12:26:43.372Z,2.97
2023-03-17T12:29:35.744Z,2.90
2023-03-17T12:32:13.499Z,3.00
2023-03-17T12:35:12.489Z,2.80
2023-03-17T12:37:40.270Z,3.55
2023-03-17T12:40:09.855Z,2.75
2023-03-17T12:45:22.992Z,2.70
2023-03-17T12:47:58.582Z,2.70
2023-03-17T12:50:40.952Z,2.58
2023-03-17T12:53:41.481Z,2.85
2023-03-17T12:56:18.141Z,3.00
2023-03-17T12:58:46.591Z,2.70
2023-03-17T13:01:32.387Z,2.05
2023-03-17T13:04:16.270Z,2.28
2023-03-17T13:06:45.663Z,2.40
2023-03-17T13:09:31.856Z,3.35
2023-03-17T13:11:59.769Z,2.67
2023-03-17T13:14:46.424Z,2.28
2023-03-17T13:17:16.897Z,2.38
2023-03-17T13:20:08.590Z,2.47
2023-03-17T13:22:54.013Z,2.33
2023-03-17T13:25:31.187Z,2.10
2023-03-17T13:28:13.410Z,2.33
2023-03-17T13:30:40.114Z,2.30
2023-03-17T13:33:10.071Z,2.72
2023-03-17T13:35:39.939Z,1.83
2023-03-17T13:38:24.021Z,2.30
2023-03-17T13:41:15.957Z,1.88
2023-03-17T13:44:00.139Z,2.20
2023-03-17T13:46:40.107Z,2.30
2023-03-17T13:49:30.252Z,2.00
2023-03-17T13:52:16.308Z,2.25
2023-03-17T13:54:48.401Z,2.13
2023-03-17T13:57:28.718Z,2.03
2023-03-17T14:00:16.602Z,2.10
2023-03-17T14:02:43.419Z,2.30
2023-03-17T14:05:30.075Z,2.13
2023-03-17T14:07:59.888Z,2.05
2023-03-17T14:10:28.066Z,2.13
2023-03-17T14:13:18.616Z,2.30
2023-03-17T14:16:07.052Z,2.03
2023-03-17T14:18:40.729Z,1.73
2023-03-17T14:21:11.674Z,2.80
2023-03-17T14:23:38.575Z,1.88
2023-03-17T14:26:07.224Z,2.10
2023-03-17T14:28:34.514Z,2.13
2023-03-17T14:31:03.341Z,1.88
2023-03-17T14:33:31.220Z,2.13
2023-03-17T14:36:01.951Z,1.90
2023-03-17T14:38:30.904Z,1.40
2023-03-17T14:41:16.540Z,1.55
2023-03-17T14:43:43.983Z,1.85
2023-03-17T14:46:22.208Z,1.50
2023-03-17T14:48:50.973Z,1.98
2023-03-17T14:51:26.266Z,2.50
2023-03-17T14:53:53.542Z,1.58
2023-03-17T14:56:24.216Z,1.40
2023-03-17T14:58:51.590Z,2.30
2023-03-17T15:01:23.083Z,1.73
2023-03-17T15:04:16.011Z,1.58
2023-03-17T15:06:48.537Z,2.20
2023-03-17T15:09:24.555Z,1.95
2023-03-17T15:11:52.532Z,1.95
2023-03-17T15:14:28.289Z,1.65
2023-03-17T15:16:55.715Z,1.65
2023-03-17T15:19:28.911Z,1.63
2023-03-17T15:22:00.702Z,1.58
2023-03-17T15:24:36.439Z,1.48
2023-03-17T15:27:16.918Z,1.90
2023-03-17T15:29:44.342Z,1.60
2023-03-17T15:32:15.425Z,2.20
2023-03-17T15:34:42.267Z,1.90
2023-03-17T15:37:27.986Z,2.25
2023-03-17T15:39:55.821Z,1.88
2023-03-17T15:42:26.377Z,2.00
2023-03-17T15:44:53.523Z,2.03
2023-03-17T15:47:21.489Z,2.13
2023-03-17T15:49:48.817Z,1.80
2023-03-17T15:52:26.736Z,2.28
2023-03-17T15:54:58.128Z,2.38
2023-03-17T15:57:25.042Z,2.08
2023-03-17T15:59:51.933Z,1.88
2023-03-17T16:02:34.809Z,2.47
2023-03-17T16:05:05.052Z,2.00
2023-03-17T16:07:32.480Z,2.30
2023-03-17T16:09:59.351Z,2.03
2023-03-17T16:12:26.327Z,2.67
2023-03-17T16:14:53.199Z,2.08
2023-03-17T16:17:30.040Z,2.88
2023-03-17T16:19:56.821Z,2.40
2023-03-17T16:22:35.798Z,2.25
2023-03-17T16:25:03.904Z,2.20
2023-03-17T16:27:30.638Z,1.70
2023-03-17T16:29:57.436Z,1.85
2023-03-17T16:32:24.992Z,2.30
2023-03-17T16:34:52.091Z,2.45
2023-03-17T16:37:18.842Z,1.80
2023-03-17T16:39:45.604Z,2.28
2023-03-17T16:42:22.709Z,2.63
2023-03-17T16:44:49.880Z,2.08
2023-03-17T16:47:16.652Z,1.80
2023-03-17T16:49:43.420Z,1.90
2023-03-17T16:52:12.095Z,1.98
2023-03-17T16:54:38.973Z,2.00
2023-03-17T16:57:07.770Z,1.80
2023-03-17T16:59:34.805Z,2.00
2023-03-17T17:02:02.111Z,2.30
2023-03-17T17:04:29.179Z,3.83
2023-03-17T17:06:56.740Z,2.00
2023-03-17T17:09:23.483Z,1.80
2023-03-17T17:11:50.247Z,2.53
2023-03-17T17:14:17.159Z,3.03
2023-03-17T17:16:43.963Z,2.35
2023-03-17T17:19:17.245Z,2.45
2023-03-17T17:21:44.566Z,2.90
2023-03-17T17:24:14.536Z,2.33
2023-03-17T17:26:41.436Z,2.72
2023-03-17T17:29:08.178Z,3.47
2023-03-17T17:31:35.148Z,2.88
2023-03-17T17:34:01.918Z,2.60
2023-03-17T17:36:28.782Z,2.72
2023-03-17T17:38:55.613Z,2.35
2023-03-17T17:41:22.475Z,4.07
2023-03-17T17:43:50.211Z,2.90
2023-03-17T17:46:19.283Z,3.55
2023-03-17T17:48:46.093Z,3.30
2023-03-17T17:51:12.877Z,3.00
2023-03-17T17:53:39.852Z,2.60
2023-03-17T17:56:07.091Z,4.07
2023-03-17T17:58:33.852Z,2.47
2023-03-17T18:01:00.738Z,2.72
2023-03-17T18:03:27.608Z,2.63
2023-03-17T18:05:55.359Z,2.42
2023-03-17T18:08:22.559Z,2.03
2023-03-17T18:10:51.856Z,2.72
2023-03-17T18:15:45.585Z,2.22
2023-03-17T18:18:12.303Z,2.45
2023-03-17T18:20:39.134Z,2.58
2023-03-17T18:23:05.918Z,3.10
2023-03-17T18:25:33.850Z,3.17
2023-03-17T18:28:01.504Z,2.92
2023-03-17T18:30:30.243Z,2.53
2023-03-17T18:33:00.633Z,3.05
2023-03-17T18:35:27.815Z,3.80
2023-03-17T18:37:55.743Z,3.40
2023-03-17T18:40:22.485Z,3.47
2023-03-17T18:42:49.265Z,2.85
2023-03-17T18:45:16.099Z,4.00
2023-03-17T18:47:42.888Z,4.25
2023-03-17T18:50:11.543Z,4.30
2023-03-17T18:52:41.104Z,3.13
2023-03-17T18:55:08.946Z,2.90
2023-03-17T18:57:35.853Z,2.78
2023-03-17T19:00:02.793Z,2.97
2023-03-17T19:02:29.922Z,4.13
2023-03-17T19:04:56.995Z,3.15
2023-03-17T19:07:25.091Z,2.90
2023-03-17T19:09:51.960Z,3.63
2023-03-17T19:12:18.838Z,4.22
2023-03-17T19:14:45.704Z,3.38
2023-03-17T19:17:13.037Z,3.70
2023-03-17T19:19:41.375Z,3.80
2023-03-17T19:22:08.151Z,4.28
2023-03-17T19:24:35.405Z,4.32
2023-03-17T19:27:02.367Z,4.47
2023-03-17T19:29:29.099Z,5.10
2023-03-17T19:31:55.844Z,4.88
2023-03-17T19:34:23.256Z,4.53
2023-03-17T19:36:50.048Z,4.80
2023-03-17T19:39:16.894Z,5.03
2023-03-17T19:41:43.721Z,5.00
2023-03-17T19:44:10.985Z,5.40
2023-03-17T19:46:37.829Z,4.88
2023-03-17T19:49:04.929Z,4.45
2023-03-17T19:51:32.866Z,5.03
2023-03-17T19:53:59.701Z,4.70
2023-03-17T19:56:27.860Z,5.75
2023-03-17T19:58:54.978Z,4.80
2023-03-17T20:01:22.870Z,6.00
2023-03-17T20:03:49.850Z,5.50
2023-03-17T20:06:16.888Z,5.13
2023-03-17T20:08:43.764Z,6.07
2023-03-17T20:11:11.682Z,7.07
2023-03-17T20:13:38.478Z,6.32
2023-03-17T20:16:06.351Z,7.32
2023-03-17T20:18:33.201Z,7.18
2023-03-17T20:21:00.301Z,7.65
2023-03-17T20:23:27.072Z,8.07
2023-03-17T20:25:53.898Z,9.73
2023-03-17T20:28:21.483Z,9.02
2023-03-17T20:30:49.414Z,7.53
2023-03-17T20:33:16.583Z,7.85
2023-03-17T20:35:44.845Z,8.82
2023-03-17T20:38:12.791Z,8.95
2023-03-17T20:40:39.625Z,10.10
2023-03-17T20:43:06.771Z,9.55
2023-03-17T20:45:33.645Z,9.20
2023-03-17T20:48:02.040Z,9.13
2023-03-17T20:50:29.479Z,9.45
2023-03-17T20:52:56.582Z,11.15
2023-03-17T20:55:23.388Z,9.73
2023-03-17T20:57:51.450Z,9.57
2023-03-17T21:00:20.173Z,10.40
2023-03-17T21:02:50.114Z,8.83
2023-03-17T21:05:22.380Z,9.35
2023-03-17T21:07:49.430Z,9.52
2023-03-17T21:10:16.948Z,9.63
2023-03-17T21:12:43.806Z,9.80
2023-03-17T21:15:11.032Z,8.35
2023-03-17T21:17:42.207Z,8.60
2023-03-17T21:20:11.191Z,9.07
2023-03-17T21:22:38.000Z,8.20
2023-03-17T21:25:05.247Z,8.63
2023-03-17T21:27:32.136Z,8.48
2023-03-17T21:29:58.993Z,8.85
2023-03-17T21:32:25.926Z,8.20
2023-03-17T21:34:54.325Z,9.57
2023-03-17T21:37:21.402Z,7.72
2023-03-17T21:39:48.524Z,9.25
2023-03-17T21:42:15.391Z,8.07
2023-03-17T21:44:42.298Z,8.23
2023-03-17T21:47:09.015Z,11.13
2023-03-17T21:49:36.247Z,9.00
2023-03-17T21:52:03.321Z,8.80
2023-03-17T21:54:30.602Z,8.57
2023-03-17T21:56:58.323Z,8.65
2023-03-17T21:59:25.413Z,7.45
2023-03-17T22:01:53.041Z,7.35
2023-03-17T22:04:20.120Z,6.53
2023-03-17T22:06:46.967Z,7.38
2023-03-17T22:09:16.061Z,7.32
2023-03-17T22:11:43.833Z,7.13
2023-03-17T22:14:12.147Z,6.72
2023-03-17T22:16:38.991Z,6.90
2023-03-17T22:19:05.759Z,6.47
2023-03-17T22:21:32.586Z,8.07
2023-03-17T22:23:59.366Z,7.53
2023-03-17T22:26:26.641Z,7.80
2023-03-17T22:28:53.472Z,8.77
2023-03-17T22:31:22.169Z,7.13
2023-03-17T22:33:49.922Z,6.77
2023-03-17T22:36:17.893Z,6.80
2023-03-17T22:38:46.017Z,6.97
2023-03-17T22:41:23.554Z,7.65
2023-03-17T22:43:50.779Z,6.15
2023-03-17T22:46:17.856Z,5.90
2023-03-17T22:48:46.158Z,6.70
2023-03-17T22:51:15.069Z,5.75
2023-03-17T22:53:41.886Z,5.57
2023-03-17T22:56:09.458Z,5.88
2023-03-17T22:58:36.254Z,6.72
2023-03-17T23:01:03.699Z,6.28
2023-03-17T23:03:30.721Z,6.68
2023-03-17T23:05:58.711Z,5.07
2023-03-17T23:08:26.224Z,6.20
2023-03-17T23:10:53.604Z,5.47
2023-03-17T23:13:20.595Z,5.88
2023-03-17T23:15:47.535Z,5.82
2023-03-17T23:18:14.316Z,5.32
2023-03-17T23:20:41.147Z,5.13
2023-03-17T23:23:08.432Z,4.68
2023-03-17T23:25:35.673Z,4.53
2023-03-17T23:28:02.936Z,5.07
2023-03-17T23:30:30.943Z,5.50
2023-03-17T23:32:58.164Z,5.25
2023-03-17T23:35:25.251Z,5.32
2023-03-17T23:37:52.105Z,4.88
2023-03-17T23:40:18.960Z,4.47
2023-03-17T23:42:48.070Z,4.70
2023-03-17T23:45:18.597Z,5.20
2023-03-17T23:47:46.697Z,6.03
2023-03-17T23:50:14.393Z,6.47
2023-03-17T23:52:42.504Z,5.65
2023-03-17T23:55:10.093Z,5.78
2023-03-17T23:57:37.872Z,6.55
